Search for airport 
image banner adimage banner ad
image banner ad

SVHM - Manzanillo

Located in Municipio Antolin Del Campo, Venezuela

ICAO - SVHM, IATA -

Data provided by Airmate  

General information

Coordinates: N11°10'12" W63°52'47"
Elevation is 594 feet MSL.
 
Rated:
View ratings: [VIEW]


View others Airports in Cojedes

Operational data

Open for public use
Current time UTC:
Current local time:
METAR: SVMG 091902Z AUTO 09012KT NCD 33/24 Q1013
TAF: TAF SVMG 091600Z 0912/1012 05003KT 9999 SCT016 TX34/0919Z TN24/0909Z BECMG 0912/0916 27005KT 9000 DZ SCT016 BKN040
View NOTAMs / SUP AIP / TFR affecting this airport [VIEW]
Communications frequencies: [VIEW]

Runways:

Airport contact information

Address: Municipio Antolin Del Campo Venezuela

Satellite view of SVHM